Time;durP1;ratioP1;P1;durP2;ratioP2;P2;SDS_P1;SDS_P2;PMS_P1;PMS_P2;Temp;Humidity;BMP_temperature;BMP_pressure;BME280_temperature;BME280_humidity;BME280_pressure;Samples;Min_cycle;Max_cycle;Signal;HPM_P1;HPM_P2
2022/06/28 00:00:07;;;;;;;4.20;3.00;;;;;;;;;;5112026;27;20400;-72
2022/06/28 00:02:33;;;;;;;4.18;2.65;;;;;;;;;;5110833;28;20464;-73
2022/06/28 00:04:59;;;;;;;5.00;2.58;;;;;;;;;;5111246;28;20376;-72
2022/06/28 00:07:25;;;;;;;6.47;3.25;;;;;;;;;;5111140;28;20439;-73
2022/06/28 00:09:51;;;;;;;4.93;3.28;;;;;;;;;;5110609;28;20415;-73
2022/06/28 00:19:37;;;;;;;5.35;2.75;;;;;;;;;;5152811;27;20107;-72
2022/06/28 00:22:03;;;;;;;5.80;3.17;;;;;;;;;;5131384;28;20027;-72
2022/06/28 00:26:11;;;;;;;8.20;4.25;;;;;;;;;;5111572;27;20445;-73
2022/06/28 00:28:37;;;;;;;5.20;3.10;;;;;;;;;;5111166;28;20028;-73
2022/06/28 00:31:04;;;;;;;4.05;2.78;;;;;;;;;;5111028;28;20391;-73
2022/06/28 00:35:13;;;;;;;6.05;3.00;;;;;;;;;;5111587;27;20847;-72
2022/06/28 00:37:39;;;;;;;4.78;3.47;;;;;;;;;;5110943;28;20032;-72
2022/06/28 00:41:01;;;;;;;5.95;2.95;;;;;;;;;;5111707;27;20392;-72
2022/06/28 00:46:42;;;;;;;4.30;2.83;;;;;;;;;;5111254;27;20473;-72
2022/06/28 00:49:08;;;;;;;4.80;2.72;;;;;;;;;;5111118;28;20058;-73
2022/06/28 00:51:34;;;;;;;4.43;2.88;;;;;;;;;;5111029;28;20047;-73
2022/06/28 00:55:32;;;;;;;4.35;2.90;;;;;;;;;;5111699;27;20725;-73
2022/06/28 00:57:58;;;;;;;6.35;2.97;;;;;;;;;;5111011;28;20024;-73
2022/06/28 01:04:39;;;;;;;6.22;4.15;;;;;;;;;;5111386;27;20414;-72
2022/06/28 01:10:58;;;;;;;5.47;3.58;;;;;;;;;;5111274;27;20852;-73
2022/06/28 01:13:24;;;;;;;6.65;3.15;;;;;;;;;;5111443;28;20094;-73
2022/06/28 01:15:50;;;;;;;8.60;3.40;;;;;;;;;;5111180;28;20531;-73
2022/06/28 01:23:22;;;;;;;6.63;4.15;;;;;;;;;;5111418;27;20392;-72
2022/06/28 01:25:48;;;;;;;7.00;3.70;;;;;;;;;;5110962;28;20024;-73
2022/06/28 01:29:23;;;;;;;6.10;3.28;;;;;;;;;;5111502;27;20427;-73
2022/06/28 01:31:49;;;;;;;6.03;3.28;;;;;;;;;;5111432;28;20055;-73
2022/06/28 01:35:09;;;;;;;5.13;3.15;;;;;;;;;;5111603;27;20389;-73
2022/06/28 01:38:33;;;;;;;4.32;2.78;;;;;;;;;;5111487;27;20983;-72
2022/06/28 01:41:00;;;;;;;4.50;3.00;;;;;;;;;;5110818;28;20020;-72
2022/06/28 01:44:19;;;;;;;6.90;3.15;;;;;;;;;;5111421;27;20384;-72
2022/06/28 01:48:06;;;;;;;5.55;3.30;;;;;;;;;;5110857;27;20393;-73
2022/06/28 01:50:32;;;;;;;5.07;3.22;;;;;;;;;;5111291;28;20545;-73
2022/06/28 01:54:46;;;;;;;5.53;3.30;;;;;;;;;;5111075;27;20396;-72
2022/06/28 01:57:13;;;;;;;6.70;3.08;;;;;;;;;;5109931;28;20186;-73
2022/06/28 01:59:39;;;;;;;5.38;3.10;;;;;;;;;;5111075;28;20472;-72
2022/06/28 02:02:06;;;;;;;4.45;3.00;;;;;;;;;;5110662;28;20042;-73
2022/06/28 02:04:47;;;;;;;8.15;3.63;;;;;;;;;;5111739;27;20535;-72
2022/06/28 02:12:28;;;;;;;5.43;3.20;;;;;;;;;;5111659;27;20393;-73
2022/06/28 02:14:57;;;;;;;5.00;3.35;;;;;;;;;;5110783;28;20024;-73
2022/06/28 02:17:24;;;;;;;4.88;3.20;;;;;;;;;;5111189;28;20020;-73
2022/06/28 02:24:34;;;;;;;5.97;3.22;;;;;;;;;;5112055;27;20385;-73
2022/06/28 02:27:00;;;;;;;4.45;3.13;;;;;;;;;;5111341;28;20106;-73
2022/06/28 02:29:26;;;;;;;5.13;3.60;;;;;;;;;;5110687;28;20103;-73
2022/06/28 02:31:52;;;;;;;6.15;3.50;;;;;;;;;;5111211;28;20126;-73
2022/06/28 02:40:35;;;;;;;6.32;3.50;;;;;;;;;;5111872;27;20422;-73
2022/06/28 02:46:29;;;;;;;5.65;3.80;;;;;;;;;;5111948;27;20388;-73
2022/06/28 02:52:16;;;;;;;5.90;4.03;;;;;;;;;;5111836;27;20834;-73
2022/06/28 02:54:56;;;;;;;7.38;3.45;;;;;;;;;;5112119;27;20377;-73
2022/06/28 02:57:22;;;;;;;7.28;3.80;;;;;;;;;;5110897;28;20488;-72
2022/06/28 03:02:56;;;;;;;6.95;3.72;;;;;;;;;;5111423;27;20852;-73
2022/06/28 03:11:28;;;;;;;8.10;4.18;;;;;;;;;;5111145;27;20385;-73
2022/06/28 03:13:55;;;;;;;8.65;3.72;;;;;;;;;;5111275;28;20073;-73
2022/06/28 03:17:28;;;;;;;6.85;3.83;;;;;;;;;;5111582;27;20400;-73
2022/06/28 03:20:44;;;;;;;9.73;4.50;;;;;;;;;;5111594;27;20393;-73
2022/06/28 03:23:25;;;;;;;7.28;4.28;;;;;;;;;;5111679;27;20985;-73
2022/06/28 03:26:11;;;;;;;8.32;4.30;;;;;;;;;;5111081;27;20392;-73
2022/06/28 03:29:22;;;;;;;8.38;4.50;;;;;;;;;;5111244;27;20396;-73
2022/06/28 03:31:49;;;;;;;13.43;6.35;;;;;;;;;;5110842;28;20073;-73
2022/06/28 03:34:15;;;;;;;11.98;5.88;;;;;;;;;;5111429;28;20028;-73
2022/06/28 03:38:24;;;;;;;18.88;6.85;;;;;;;;;;5111650;27;20377;-73
2022/06/28 03:45:47;;;;;;;12.20;5.57;;;;;;;;;;5111109;27;20418;-73
2022/06/28 03:48:13;;;;;;;14.43;4.55;;;;;;;;;;5111335;28;20023;-72
2022/06/28 03:50:40;;;;;;;13.15;5.13;;;;;;;;;;5111224;28;20024;-72
2022/06/28 03:53:22;;;;;;;10.95;5.93;;;;;;;;;;5111412;27;20423;-72
2022/06/28 03:56:40;;;;;;;12.32;5.35;;;;;;;;;;5111558;27;20423;-72
2022/06/28 03:59:49;;;;;;;9.52;5.20;;;;;;;;;;5111084;27;20411;-72
2022/06/28 04:02:15;;;;;;;9.73;4.78;;;;;;;;;;5111273;28;20379;-72
2022/06/28 04:04:41;;;;;;;10.25;5.60;;;;;;;;;;5111145;28;20023;-72
2022/06/28 04:07:37;;;;;;;11.82;5.20;;;;;;;;;;5111451;27;20401;-72
2022/06/28 04:10:03;;;;;;;12.90;5.25;;;;;;;;;;5111585;28;20031;-72
2022/06/28 04:12:29;;;;;;;12.15;4.97;;;;;;;;;;5111177;28;20061;-72
2022/06/28 04:14:56;;;;;;;11.32;5.03;;;;;;;;;;5110793;28;20023;-72
2022/06/28 04:17:22;;;;;;;8.40;4.40;;;;;;;;;;5111327;28;20026;-72
2022/06/28 04:19:48;;;;;;;9.98;4.70;;;;;;;;;;5111531;28;20067;-72
2022/06/28 04:22:14;;;;;;;10.82;5.38;;;;;;;;;;5110612;28;20031;-73
2022/06/28 04:24:40;;;;;;;12.43;5.28;;;;;;;;;;5110990;28;20147;-73
2022/06/28 04:27:06;;;;;;;12.20;4.82;;;;;;;;;;5110924;28;20036;-73
2022/06/28 04:29:32;;;;;;;11.27;4.90;;;;;;;;;;5110364;28;20016;-73
2022/06/28 04:36:02;;;;;;;14.60;5.43;;;;;;;;;;5173076;27;20186;-72
2022/06/28 04:38:28;;;;;;;10.73;4.85;;;;;;;;;;5133938;27;20027;-72
2022/06/28 04:40:54;;;;;;;11.02;4.57;;;;;;;;;;5152551;27;20034;-72
2022/06/28 04:44:56;;;;;;;6.53;3.92;;;;;;;;;;5111565;27;20904;-72
2022/06/28 04:50:53;;;;;;;7.32;3.83;;;;;;;;;;5111033;27;20385;-72
2022/06/28 04:53:19;;;;;;;8.60;3.35;;;;;;;;;;5111445;28;20114;-72
2022/06/28 04:56:25;;;;;;;5.45;3.60;;;;;;;;;;5111186;27;20384;-72
2022/06/28 04:59:38;;;;;;;5.85;3.30;;;;;;;;;;5111648;27;20408;-71
2022/06/28 05:03:30;;;;;;;5.63;3.42;;;;;;;;;;5110936;27;20392;-71
2022/06/28 05:05:56;;;;;;;5.07;3.03;;;;;;;;;;5111197;28;20024;-72
2022/06/28 05:08:22;;;;;;;5.05;3.20;;;;;;;;;;5127018;28;20098;-72
2022/06/28 05:12:15;;;;;;;5.80;3.25;;;;;;;;;;5110960;27;20393;-72
2022/06/28 05:14:41;;;;;;;5.32;3.05;;;;;;;;;;5111344;28;20028;-72
2022/06/28 05:17:07;;;;;;;6.05;3.72;;;;;;;;;;5111110;28;20426;-72
2022/06/28 05:21:03;;;;;;;6.70;2.97;;;;;;;;;;5110988;27;20457;-71
2022/06/28 05:23:29;;;;;;;6.47;3.22;;;;;;;;;;5109566;28;20553;-71
2022/06/28 05:26:36;;;;;;;7.28;3.42;;;;;;;;;;5111056;27;20418;-76
2022/06/28 05:29:02;;;;;;;4.20;3.08;;;;;;;;;;5109754;28;20500;-73
2022/06/28 05:31:28;;;;;;;8.23;4.30;;;;;;;;;;5109339;28;20867;-72
2022/06/28 05:33:55;;;;;;;6.25;3.38;;;;;;;;;;5109928;28;20464;-73
2022/06/28 05:36:21;;;;;;;7.60;3.80;;;;;;;;;;5111127;28;20063;-70
2022/06/28 05:38:47;;;;;;;9.20;4.10;;;;;;;;;;5110568;28;20045;-71
2022/06/28 05:44:56;;;;;;;5.97;3.63;;;;;;;;;;5104087;27;20840;-70
2022/06/28 05:47:22;;;;;;;7.80;3.00;;;;;;;;;;5090556;28;20055;-71
2022/06/28 05:52:27;;;;;;;5.93;3.20;;;;;;;;;;5110657;27;20109;-71
2022/06/28 05:58:30;;;;;;;6.90;3.35;;;;;;;;;;5111670;27;20117;-71
2022/06/28 06:00:56;;;;;;;6.35;2.92;;;;;;;;;;5109854;28;20414;-71
2022/06/28 06:03:22;;;;;;;6.32;3.20;;;;;;;;;;5110291;28;20027;-71
2022/06/28 06:05:49;;;;;;;5.95;3.05;;;;;;;;;;5111160;28;20024;-71
2022/06/28 06:08:16;;;;;;;6.82;3.03;;;;;;;;;;5110762;28;20023;-72
2022/06/28 06:10:42;;;;;;;11.25;3.80;;;;;;;;;;5110904;28;20043;-72
2022/06/28 06:13:08;;;;;;;5.97;3.20;;;;;;;;;;5099858;28;20023;-71
2022/06/28 06:17:19;;;;;;;3.65;2.85;;;;;;;;;;5121126;27;20403;-71
2022/06/28 06:19:46;;;;;;;4.65;2.72;;;;;;;;;;5111659;28;20028;-70
2022/06/28 06:22:12;;;;;;;4.75;2.83;;;;;;;;;;5117234;28;20024;-73
2022/06/28 06:24:38;;;;;;;4.88;2.72;;;;;;;;;;5127667;28;20356;-72
2022/06/28 06:27:04;;;;;;;5.40;3.53;;;;;;;;;;5129984;28;20034;-71
2022/06/28 06:29:30;;;;;;;6.47;3.10;;;;;;;;;;5109902;28;20028;-71
2022/06/28 06:33:25;;;;;;;5.65;3.10;;;;;;;;;;5110434;27;20846;-70
2022/06/28 06:35:51;;;;;;;6.07;2.72;;;;;;;;;;5103826;28;20521;-70
2022/06/28 06:38:46;;;;;;;5.70;2.90;;;;;;;;;;5110724;27;20422;-71
2022/06/28 06:41:12;;;;;;;4.25;2.78;;;;;;;;;;5110193;28;20103;-70
2022/06/28 06:43:38;;;;;;;6.72;3.90;;;;;;;;;;5108322;28;20055;-71
2022/06/28 06:46:04;;;;;;;4.57;2.53;;;;;;;;;;5108734;28;20077;-70
2022/06/28 06:48:30;;;;;;;5.45;2.88;;;;;;;;;;5108552;28;20024;-70
2022/06/28 06:50:56;;;;;;;7.88;2.95;;;;;;;;;;5108859;28;20031;-69
2022/06/28 06:55:31;;;;;;;3.97;2.30;;;;;;;;;;5089917;27;20840;-70
2022/06/28 06:57:57;;;;;;;4.85;2.70;;;;;;;;;;5089940;28;20047;-69
2022/06/28 07:00:23;;;;;;;6.13;3.20;;;;;;;;;;5089792;28;20028;-70
2022/06/28 07:03:46;;;;;;;3.67;2.50;;;;;;;;;;5108516;27;20385;-73
2022/06/28 07:06:13;;;;;;;5.55;3.13;;;;;;;;;;5110032;28;20054;-70
2022/06/28 07:08:39;;;;;;;4.28;2.45;;;;;;;;;;5109752;28;20032;-72
2022/06/28 07:11:06;;;;;;;8.98;2.92;;;;;;;;;;5108977;28;20491;-70
2022/06/28 07:13:32;;;;;;;4.68;2.85;;;;;;;;;;5107594;28;20077;-71
2022/06/28 07:15:58;;;;;;;4.15;2.50;;;;;;;;;;5104006;28;20024;-69
2022/06/28 07:18:24;;;;;;;3.92;2.58;;;;;;;;;;5108539;28;20371;-69
2022/06/28 07:22:11;;;;;;;4.22;2.75;;;;;;;;;;5122636;27;20421;-70
2022/06/28 07:24:37;;;;;;;3.22;2.47;;;;;;;;;;5128527;28;20027;-69
2022/06/28 07:27:04;;;;;;;5.05;2.50;;;;;;;;;;5112570;28;20368;-70
2022/06/28 07:30:59;;;;;;;3.63;2.40;;;;;;;;;;5109423;27;20388;-71
2022/06/28 07:33:25;;;;;;;4.30;2.38;;;;;;;;;;5109133;28;20036;-69
2022/06/28 07:35:51;;;;;;;3.95;2.70;;;;;;;;;;5090501;28;20465;-69
2022/06/28 07:39:39;;;;;;;4.72;2.20;;;;;;;;;;5110745;27;20411;-70
2022/06/28 07:42:05;;;;;;;4.70;2.53;;;;;;;;;;5110603;28;20130;-70
2022/06/28 07:44:31;;;;;;;3.75;2.28;;;;;;;;;;5110981;28;20490;-70
2022/06/28 07:46:58;;;;;;;4.90;2.78;;;;;;;;;;5110551;28;20425;-70
2022/06/28 07:52:33;;;;;;;3.97;2.30;;;;;;;;;;5110679;28;20531;-70
2022/06/28 07:52:52;;;;;;;3.50;2.45;;;;;;;;;;5110383;28;20032;-69
2022/06/28 07:54:59;;;;;;;5.32;2.97;;;;;;;;;;5104776;28;20480;-69
2022/06/28 07:57:26;;;;;;;5.15;2.75;;;;;;;;;;5110239;28;20024;-68
2022/06/28 07:59:52;;;;;;;4.38;2.60;;;;;;;;;;5110270;28;20055;-69
2022/06/28 08:02:18;;;;;;;4.05;2.22;;;;;;;;;;5110417;28;20035;-69
2022/06/28 08:04:44;;;;;;;3.88;2.40;;;;;;;;;;5110185;28;20028;-69
2022/06/28 08:07:10;;;;;;;4.10;2.13;;;;;;;;;;5109976;28;20065;-71
2022/06/28 08:09:36;;;;;;;4.20;2.60;;;;;;;;;;5109912;28;20020;-71
2022/06/28 08:12:03;;;;;;;3.97;2.50;;;;;;;;;;5113858;28;20023;-69
2022/06/28 08:14:29;;;;;;;6.00;2.85;;;;;;;;;;5127715;28;20387;-69
2022/06/28 08:16:56;;;;;;;5.90;2.72;;;;;;;;;;5114572;28;20507;-69
2022/06/28 08:19:22;;;;;;;4.28;2.42;;;;;;;;;;5115509;28;20032;-69
2022/06/28 08:21:49;;;;;;;3.45;2.10;;;;;;;;;;5109739;28;20466;-69
2022/06/28 08:24:15;;;;;;;3.63;2.10;;;;;;;;;;5109547;28;20027;-70
2022/06/28 08:26:44;;;;;;;4.05;2.38;;;;;;;;;;5113275;28;20042;-70
2022/06/28 08:29:11;;;;;;;5.53;2.65;;;;;;;;;;5128217;28;20023;-71
2022/06/28 08:31:37;;;;;;;5.28;2.60;;;;;;;;;;5128675;28;20549;-70
2022/06/28 08:34:04;;;;;;;3.60;2.40;;;;;;;;;;5127240;28;20483;-69
2022/06/28 08:36:30;;;;;;;4.78;2.67;;;;;;;;;;5127548;28;20019;-69
2022/06/28 08:38:56;;;;;;;2.95;2.13;;;;;;;;;;5118435;28;20074;-69
2022/06/28 08:41:24;;;;;;;4.13;2.45;;;;;;;;;;5118332;28;20057;-70
2022/06/28 08:43:50;;;;;;;5.47;2.58;;;;;;;;;;5126629;28;20470;-70
2022/06/28 08:46:17;;;;;;;6.13;2.55;;;;;;;;;;5116902;28;20038;-70
2022/06/28 08:48:44;;;;;;;6.72;2.63;;;;;;;;;;5105102;28;20085;-69
2022/06/28 08:51:11;;;;;;;3.13;2.38;;;;;;;;;;5093117;28;20062;-68
2022/06/28 08:53:39;;;;;;;4.05;2.33;;;;;;;;;;5104100;28;20026;-68
2022/06/28 08:56:06;;;;;;;4.05;2.20;;;;;;;;;;5094392;28;20380;-69
2022/06/28 08:58:32;;;;;;;3.30;2.10;;;;;;;;;;5094983;28;20081;-68
2022/06/28 09:00:58;;;;;;;3.00;2.20;;;;;;;;;;5094811;28;20103;-68
2022/06/28 09:03:24;;;;;;;4.55;2.60;;;;;;;;;;5094636;28;20028;-69
2022/06/28 09:05:51;;;;;;;3.83;2.17;;;;;;;;;;5095125;28;20024;-69
2022/06/28 09:08:18;;;;;;;3.55;2.08;;;;;;;;;;5095188;28;20020;-69
2022/06/28 09:10:44;;;;;;;4.47;2.33;;;;;;;;;;5094883;28;20016;-70
2022/06/28 09:13:13;;;;;;;3.40;2.17;;;;;;;;;;5110665;28;20463;-70
2022/06/28 09:15:53;;;;;;;3.25;1.70;;;;;;;;;;5114341;28;20024;-69
2022/06/28 09:18:20;;;;;;;3.42;2.03;;;;;;;;;;5093160;28;20162;-70
2022/06/28 09:20:46;;;;;;;3.33;1.83;;;;;;;;;;5094993;28;20035;-69
2022/06/28 09:23:22;;;;;;;4.38;2.22;;;;;;;;;;5094962;28;20047;-70
2022/06/28 09:25:49;;;;;;;3.15;2.20;;;;;;;;;;5104087;28;20027;-72
2022/06/28 09:28:22;;;;;;;2.95;1.88;;;;;;;;;;5105711;28;20020;-69
2022/06/28 09:30:49;;;;;;;3.33;1.90;;;;;;;;;;5100149;28;20027;-70
2022/06/28 09:33:28;;;;;;;2.47;2.00;;;;;;;;;;5093609;28;20031;-70
2022/06/28 09:35:54;;;;;;;2.78;1.55;;;;;;;;;;5092401;28;20024;-70
2022/06/28 09:38:30;;;;;;;3.20;2.00;;;;;;;;;;5093148;28;20129;-69
2022/06/28 09:40:57;;;;;;;3.80;1.90;;;;;;;;;;5094272;28;20026;-70
2022/06/28 09:43:30;;;;;;;2.78;1.40;;;;;;;;;;5094496;28;20024;-69
2022/06/28 09:45:57;;;;;;;3.50;1.40;;;;;;;;;;5093914;28;20012;-69
2022/06/28 09:48:23;;;;;;;4.13;1.60;;;;;;;;;;5094356;28;20539;-71
2022/06/28 09:50:57;;;;;;;4.05;2.33;;;;;;;;;;5093109;28;20078;-71
2022/06/28 09:53:24;;;;;;;2.50;1.60;;;;;;;;;;5093451;28;20046;-72
2022/06/28 09:55:51;;;;;;;5.10;1.77;;;;;;;;;;5093984;28;20098;-71
2022/06/28 09:58:17;;;;;;;2.53;1.63;;;;;;;;;;5092557;28;20048;-73
2022/06/28 10:00:43;;;;;;;3.80;2.03;;;;;;;;;;5092700;28;20117;-73
2022/06/28 10:03:10;;;;;;;5.15;1.90;;;;;;;;;;5093018;28;20082;-73
2022/06/28 10:05:36;;;;;;;1.52;1.20;;;;;;;;;;5094380;28;20025;-74
2022/06/28 10:08:03;;;;;;;4.45;1.60;;;;;;;;;;5093925;28;20491;-74
2022/06/28 10:10:30;;;;;;;3.95;1.80;;;;;;;;;;5094812;28;20036;-73
2022/06/28 10:16:03;;;;;;;2.55;1.60;;;;;;;;;;5094784;28;20043;-74
2022/06/28 10:18:30;;;;;;;3.90;2.15;;;;;;;;;;5094883;28;20042;-74
2022/06/28 10:20:56;;;;;;;3.65;1.30;;;;;;;;;;5094357;28;20035;-74
2022/06/28 10:23:25;;;;;;;4.45;1.65;;;;;;;;;;5076581;28;20429;-75
2022/06/28 10:26:03;;;;;;;2.72;1.23;;;;;;;;;;5094390;28;20016;-74
2022/06/28 10:28:34;;;;;;;2.38;1.40;;;;;;;;;;5094291;28;20028;-72
2022/06/28 10:31:19;;;;;;;4.22;1.23;;;;;;;;;;5093589;28;20054;-74
2022/06/28 10:33:45;;;;;;;2.53;1.55;;;;;;;;;;5092795;28;20077;-73
2022/06/28 10:36:13;;;;;;;2.38;1.35;;;;;;;;;;5092990;28;20488;-73
2022/06/28 10:38:39;;;;;;;1.83;1.20;;;;;;;;;;5094008;28;20554;-73
2022/06/28 10:41:13;;;;;;;2.35;1.50;;;;;;;;;;5093845;28;20031;-73
2022/06/28 10:43:45;;;;;;;2.90;1.73;;;;;;;;;;5094232;28;20024;-73
2022/06/28 10:46:11;;;;;;;;;;;;;;;;;;5094473;28;20049;-73
2022/06/28 10:48:49;;;;;;;4.18;1.38;;;;;;;;;;5093607;28;19908;-72
2022/06/28 10:51:15;;;;;;;4.13;2.30;;;;;;;;;;5092633;28;20024;-73
2022/06/28 10:53:57;;;;;;;3.30;1.70;;;;;;;;;;5092370;28;20400;-74
2022/06/28 10:56:26;;;;;;;1.92;1.23;;;;;;;;;;5091977;28;20028;-72
2022/06/28 10:58:55;;;;;;;3.85;1.50;;;;;;;;;;5093067;28;20036;-73
2022/06/28 11:01:47;;;;;;;2.63;1.40;;;;;;;;;;5093259;28;20048;-73
2022/06/28 11:04:13;;;;;;;4.38;1.60;;;;;;;;;;5090483;28;20039;-73
2022/06/28 11:06:44;;;;;;;2.30;1.42;;;;;;;;;;5093545;28;20062;-73
2022/06/28 11:09:19;;;;;;;5.18;2.05;;;;;;;;;;5093226;28;20024;-73
2022/06/28 11:12:05;;;;;;;2.83;1.63;;;;;;;;;;5093667;28;20476;-73
2022/06/28 11:14:32;;;;;;;3.13;1.50;;;;;;;;;;5093709;28;20028;-72
2022/06/28 11:16:59;;;;;;;2.63;1.15;;;;;;;;;;5093387;28;20028;-73
2022/06/28 11:19:25;;;;;;;1.92;1.33;;;;;;;;;;5093574;28;20054;-73
2022/06/28 11:21:56;;;;;;;2.38;1.45;;;;;;;;;;5093689;28;20035;-73
2022/06/28 11:24:23;;;;;;;5.57;1.23;;;;;;;;;;5093356;28;20020;-73
2022/06/28 11:29:34;;;;;;;2.78;1.52;;;;;;;;;;5093602;28;20031;-72
2022/06/28 11:32:00;;;;;;;2.53;1.17;;;;;;;;;;5093018;28;20023;-72
2022/06/28 11:34:27;;;;;;;2.47;1.60;;;;;;;;;;5093575;28;20024;-72
2022/06/28 11:36:56;;;;;;;1.25;1.00;;;;;;;;;;5093775;28;20024;-74
2022/06/28 11:39:23;;;;;;;4.03;1.85;;;;;;;;;;5092716;28;20044;-72
2022/06/28 11:41:50;;;;;;;3.92;1.75;;;;;;;;;;5093897;28;20031;-72
2022/06/28 11:44:17;;;;;;;2.67;1.50;;;;;;;;;;5092862;28;20028;-72
2022/06/28 11:46:44;;;;;;;4.10;1.85;;;;;;;;;;5093257;28;20023;-72
2022/06/28 11:49:11;;;;;;;2.53;1.52;;;;;;;;;;5093213;28;20024;-71
2022/06/28 11:51:40;;;;;;;1.40;1.20;;;;;;;;;;5092937;28;20395;-72
2022/06/28 11:54:07;;;;;;;2.63;1.42;;;;;;;;;;5093548;28;20476;-73
2022/06/28 11:56:43;;;;;;;3.30;1.17;;;;;;;;;;5093489;28;20052;-73
2022/06/28 11:59:09;;;;;;;2.85;1.52;;;;;;;;;;5092865;28;20112;-73
2022/06/28 12:01:39;;;;;;;5.78;1.65;;;;;;;;;;5093105;28;20027;-73
2022/06/28 12:04:09;;;;;;;2.42;1.35;;;;;;;;;;5093301;28;20095;-73
2022/06/28 12:06:36;;;;;;;3.60;1.42;;;;;;;;;;5092844;28;20020;-73
2022/06/28 12:09:04;;;;;;;1.90;1.10;;;;;;;;;;5093370;28;20024;-72
2022/06/28 12:11:40;;;;;;;2.97;1.20;;;;;;;;;;5093174;28;20081;-73
2022/06/28 12:14:07;;;;;;;2.45;1.20;;;;;;;;;;5092529;28;20066;-73
2022/06/28 12:16:33;;;;;;;2.60;1.40;;;;;;;;;;5093104;28;20103;-73
2022/06/28 12:18:59;;;;;;;3.75;1.50;;;;;;;;;;5093011;28;20028;-73
2022/06/28 12:21:26;;;;;;;2.00;1.30;;;;;;;;;;5092647;28;20023;-73
2022/06/28 12:23:53;;;;;;;2.88;1.38;;;;;;;;;;5092943;28;20043;-73
2022/06/28 12:26:20;;;;;;;2.80;1.35;;;;;;;;;;5096175;28;20023;-73
2022/06/28 12:28:47;;;;;;;4.28;1.20;;;;;;;;;;5096793;28;20027;-73
2022/06/28 12:31:13;;;;;;;1.67;1.25;;;;;;;;;;5096898;28;20097;-73
2022/06/28 12:33:40;;;;;;;6.45;1.23;;;;;;;;;;5096541;28;20062;-73
2022/06/28 12:36:06;;;;;;;2.10;1.00;;;;;;;;;;5096688;28;20477;-73
2022/06/28 12:38:32;;;;;;;2.40;1.05;;;;;;;;;;5096294;28;20054;-73
2022/06/28 12:40:58;;;;;;;2.55;1.20;;;;;;;;;;5096172;28;20488;-73
2022/06/28 12:43:24;;;;;;;2.78;1.25;;;;;;;;;;5096556;28;20073;-73
2022/06/28 12:45:51;;;;;;;1.95;1.13;;;;;;;;;;5095240;28;20020;-73
2022/06/28 12:48:17;;;;;;;3.03;1.23;;;;;;;;;;5096287;28;20032;-73
2022/06/28 12:50:43;;;;;;;5.32;1.45;;;;;;;;;;5095411;28;20425;-73
2022/06/28 12:53:09;;;;;;;2.10;1.10;;;;;;;;;;5096363;28;20028;-73
2022/06/28 12:55:36;;;;;;;3.25;1.40;;;;;;;;;;5095538;28;20024;-71
2022/06/28 12:58:02;;;;;;;2.83;1.30;;;;;;;;;;5096121;28;20089;-72
2022/06/28 13:00:28;;;;;;;4.25;1.10;;;;;;;;;;5096263;28;20091;-72
2022/06/28 13:02:54;;;;;;;3.00;1.23;;;;;;;;;;5095988;28;20476;-72
2022/06/28 13:05:22;;;;;;;2.60;1.20;;;;;;;;;;5096121;28;20016;-72
2022/06/28 13:07:49;;;;;;;7.20;1.20;;;;;;;;;;5096140;28;20020;-73
2022/06/28 13:10:15;;;;;;;1.45;1.20;;;;;;;;;;5095662;28;20024;-73
2022/06/28 13:12:41;;;;;;;2.10;1.25;;;;;;;;;;5095904;28;20077;-73
2022/06/28 13:15:08;;;;;;;4.97;2.90;;;;;;;;;;5094508;28;20455;-73
2022/06/28 13:17:35;;;;;;;2.17;1.40;;;;;;;;;;5093336;28;20042;-73
2022/06/28 13:20:03;;;;;;;2.47;1.13;;;;;;;;;;5095780;28;20488;-74
2022/06/28 13:22:29;;;;;;;3.17;1.30;;;;;;;;;;5095800;28;20031;-73
2022/06/28 13:24:55;;;;;;;1.63;1.02;;;;;;;;;;5095416;28;20086;-74
2022/06/28 13:27:21;;;;;;;4.63;1.70;;;;;;;;;;5095692;28;20422;-73
2022/06/28 13:29:47;;;;;;;2.38;1.20;;;;;;;;;;5095347;28;20024;-73
2022/06/28 13:32:13;;;;;;;5.18;3.40;;;;;;;;;;5095849;28;20024;-73
2022/06/28 13:34:39;;;;;;;2.15;1.27;;;;;;;;;;5095464;28;20028;-70
2022/06/28 13:37:06;;;;;;;1.90;1.05;;;;;;;;;;5095078;28;20047;-70
2022/06/28 13:39:32;;;;;;;3.38;1.00;;;;;;;;;;5095148;28;20040;-73
2022/06/28 13:41:58;;;;;;;1.90;1.13;;;;;;;;;;5095524;28;20107;-73
2022/06/28 13:44:25;;;;;;;1.77;1.02;;;;;;;;;;5094999;28;20438;-71
2022/06/28 13:46:53;;;;;;;2.65;1.20;;;;;;;;;;5095311;28;20017;-72
2022/06/28 13:49:19;;;;;;;2.13;1.17;;;;;;;;;;5095327;28;20020;-72
2022/06/28 13:51:45;;;;;;;1.50;1.13;;;;;;;;;;5095138;28;20028;-72
2022/06/28 13:54:12;;;;;;;1.33;1.05;;;;;;;;;;5095199;28;20495;-72
2022/06/28 13:56:38;;;;;;;2.75;0.90;;;;;;;;;;5095104;28;20488;-72
2022/06/28 13:59:05;;;;;;;3.03;1.35;;;;;;;;;;5094518;28;20031;-72
2022/06/28 14:01:31;;;;;;;2.08;1.13;;;;;;;;;;5095032;28;20027;-71
2022/06/28 14:03:57;;;;;;;1.95;1.23;;;;;;;;;;5094907;28;20483;-72
2022/06/28 14:06:23;;;;;;;3.38;1.17;;;;;;;;;;5094609;28;20122;-72
2022/06/28 14:08:49;;;;;;;2.67;1.13;;;;;;;;;;5094770;28;20027;-72
2022/06/28 14:11:15;;;;;;;3.00;1.20;;;;;;;;;;5094786;28;20054;-72
2022/06/28 14:13:42;;;;;;;2.65;1.15;;;;;;;;;;5094233;28;20432;-72
2022/06/28 14:16:08;;;;;;;2.53;1.25;;;;;;;;;;5094722;28;20051;-74
2022/06/28 14:18:34;;;;;;;4.28;1.20;;;;;;;;;;5094502;28;20036;-72
2022/06/28 14:21:02;;;;;;;2.92;1.10;;;;;;;;;;5094336;28;20012;-73
2022/06/28 14:23:28;;;;;;;1.95;1.20;;;;;;;;;;5093421;28;20028;-71
2022/06/28 14:25:54;;;;;;;3.08;1.35;;;;;;;;;;5094430;28;20392;-72
2022/06/28 14:28:20;;;;;;;1.00;0.90;;;;;;;;;;5094835;28;20430;-72
2022/06/28 14:30:47;;;;;;;2.88;1.33;;;;;;;;;;5094468;28;20020;-72
2022/06/28 14:33:13;;;;;;;1.85;1.10;;;;;;;;;;5094056;28;20020;-72
2022/06/28 14:35:40;;;;;;;2.28;1.10;;;;;;;;;;5094400;28;20051;-72
2022/06/28 14:38:06;;;;;;;3.92;1.45;;;;;;;;;;5094096;28;20400;-72
2022/06/28 14:40:33;;;;;;;2.70;1.42;;;;;;;;;;5093923;28;20024;-72
2022/06/28 14:43:00;;;;;;;2.28;1.40;;;;;;;;;;5094347;28;20099;-72
2022/06/28 14:45:27;;;;;;;2.33;1.10;;;;;;;;;;5092972;28;20024;-72
2022/06/28 14:47:54;;;;;;;2.03;1.10;;;;;;;;;;5093222;28;20021;-73
2022/06/28 14:50:20;;;;;;;4.03;1.50;;;;;;;;;;5094131;28;20032;-73
2022/06/28 14:52:46;;;;;;;3.03;1.35;;;;;;;;;;5094111;28;20048;-73
2022/06/28 14:55:12;;;;;;;2.05;1.20;;;;;;;;;;5093629;28;20447;-73
2022/06/28 14:57:38;;;;;;;1.73;1.20;;;;;;;;;;5094179;28;20024;-72
2022/06/28 15:00:06;;;;;;;2.13;1.33;;;;;;;;;;5094150;28;20047;-73
2022/06/28 15:02:32;;;;;;;5.03;1.45;;;;;;;;;;5093719;28;20030;-73
2022/06/28 15:04:58;;;;;;;3.08;1.52;;;;;;;;;;5094171;28;20048;-73
2022/06/28 15:07:24;;;;;;;3.03;1.67;;;;;;;;;;5094077;28;20411;-74
2022/06/28 15:09:50;;;;;;;2.97;1.30;;;;;;;;;;5093434;28;20506;-73
2022/06/28 15:12:16;;;;;;;2.55;1.33;;;;;;;;;;5094043;28;20024;-74
2022/06/28 15:14:43;;;;;;;2.35;1.40;;;;;;;;;;5093816;28;20070;-74
2022/06/28 15:17:09;;;;;;;3.50;1.52;;;;;;;;;;5093256;28;20024;-74
2022/06/28 15:19:35;;;;;;;3.92;1.58;;;;;;;;;;5093717;28;20038;-73
2022/06/28 15:33:01;;;;;;;4.20;1.63;;;;;;;;;;5093593;28;20055;-73
2022/06/28 15:35:27;;;;;;;3.03;1.40;;;;;;;;;;5093482;28;20070;-74
2022/06/28 15:37:53;;;;;;;4.40;1.35;;;;;;;;;;5092821;28;20124;-73
2022/06/28 15:40:19;;;;;;;3.55;1.30;;;;;;;;;;5093517;28;20430;-72
2022/06/28 15:42:45;;;;;;;3.28;1.40;;;;;;;;;;5093439;28;20046;-73
2022/06/28 15:45:12;;;;;;;2.05;1.30;;;;;;;;;;5093005;28;20077;-72
2022/06/28 15:47:38;;;;;;;4.57;1.50;;;;;;;;;;5093403;28;20483;-72
2022/06/28 15:50:04;;;;;;;2.33;1.40;;;;;;;;;;5091990;28;20028;-72
2022/06/28 15:52:30;;;;;;;2.85;1.40;;;;;;;;;;5092914;28;20027;-72
2022/06/28 15:54:56;;;;;;;3.17;1.20;;;;;;;;;;5093245;28;20097;-73
2022/06/28 15:57:22;;;;;;;3.15;1.40;;;;;;;;;;5092784;28;20020;-72
2022/06/28 15:59:49;;;;;;;1.98;1.25;;;;;;;;;;5094403;28;20119;-72
2022/06/28 16:02:15;;;;;;;1.50;1.35;;;;;;;;;;5097232;28;20096;-72
2022/06/28 16:04:41;;;;;;;2.03;1.23;;;;;;;;;;5096869;28;20070;-72
2022/06/28 16:07:07;;;;;;;4.55;1.50;;;;;;;;;;5095889;28;20028;-73
2022/06/28 16:09:33;;;;;;;4.40;1.50;;;;;;;;;;5097065;28;20032;-74
2022/06/28 16:14:44;;;;;;;4.13;1.58;;;;;;;;;;5097054;28;20054;-73
2022/06/28 16:17:10;;;;;;;3.35;1.40;;;;;;;;;;5097023;28;20387;-73
2022/06/28 16:19:36;;;;;;;2.58;1.52;;;;;;;;;;5096415;28;20119;-73
2022/06/28 16:22:02;;;;;;;4.05;1.52;;;;;;;;;;5096838;28;20020;-73
2022/06/28 16:24:28;;;;;;;3.38;1.27;;;;;;;;;;5096784;28;20079;-73
2022/06/28 16:26:55;;;;;;;3.88;1.45;;;;;;;;;;5096478;28;20024;-73
2022/06/28 16:29:21;;;;;;;3.13;1.30;;;;;;;;;;5096622;28;20024;-73
2022/06/28 16:31:47;;;;;;;5.25;1.50;;;;;;;;;;5096608;28;20024;-73
2022/06/28 16:34:13;;;;;;;2.97;1.23;;;;;;;;;;5096352;28;20073;-72
2022/06/28 16:36:39;;;;;;;1.65;1.20;;;;;;;;;;5096751;28;20024;-72
2022/06/28 16:39:05;;;;;;;5.22;1.63;;;;;;;;;;5096368;28;20043;-72
2022/06/28 16:41:32;;;;;;;8.48;1.45;;;;;;;;;;5096175;28;20461;-72
2022/06/28 16:43:58;;;;;;;2.28;1.25;;;;;;;;;;5096487;28;20384;-72
2022/06/28 16:46:24;;;;;;;3.08;1.50;;;;;;;;;;5096460;28;20020;-72
2022/06/28 16:48:50;;;;;;;24.08;3.83;;;;;;;;;;5096125;28;20028;-73
2022/06/28 16:51:16;;;;;;;6.88;3.15;;;;;;;;;;5096591;28;20099;-73
2022/06/28 16:53:43;;;;;;;5.65;2.75;;;;;;;;;;5095961;28;20551;-73
2022/06/28 16:56:09;;;;;;;4.38;2.15;;;;;;;;;;5096133;28;20485;-72
2022/06/28 16:58:35;;;;;;;2.28;1.50;;;;;;;;;;5096177;28;20024;-73